Mileston, Mississippi
Current Conditions -  °F | °C
As of 6:53 PM on Monday 20 Oct 2014 (Local Time) from KGWO Reporting Station
Clear Clear  
Wind Chill: 16°   Ceiling: Unl
Heat Index: 16°   Visibility: 10mi
Dew Point: 12°   Wind: 3mph
Humidity: 75%   Direction: 60°ENE
Pressure: 30.03"   Gusts: NA
Location:  33.1467°N, 90.274°W
Report Text: KGWO 202353Z AUTO 06003KT 10SM CLR 16/12 A3003 RMK AO2 SLP167 T01610117 10239 20156 53001 TSNO
Loading
Personal Weather Stations






























Interactive Weather Map
Tropical Storm Tracking
New forecast layout! Learn more

10-Day Weather Forecast

Advertisements
Track Severe Weather on mobile